Time;durP1;ratioP1;P1;durP2;ratioP2;P2;SDS_P1;SDS_P2;PMS_P1;PMS_P2;Temp;Humidity;BMP_temperature;BMP_pressure;BME280_temperature;BME280_humidity;BME280_pressure;Samples;Min_cycle;Max_cycle;Signal;HPM_P1;HPM_P2
2021/05/01 00:01:28;;;;;;;1.53;1.43;;;7.80;98.00;;;;;;5031942;28;21083;-70
2021/05/01 00:03:55;;;;;;;2.27;1.80;;;7.80;98.00;;;;;;5034442;28;21005;-70
2021/05/01 00:06:21;;;;;;;3.10;1.77;;;7.90;98.00;;;;;;5029936;28;20524;-70
2021/05/01 00:08:48;;;;;;;1.20;1.03;;;7.90;98.00;;;;;;5034554;28;20464;-70
2021/05/01 00:11:15;;;;;;;1.97;1.50;;;7.90;98.00;;;;;;5031405;28;20461;-70
2021/05/01 00:13:41;;;;;;;1.73;1.53;;;7.90;98.00;;;;;;5034177;28;20455;-70
2021/05/01 00:16:08;;;;;;;1.30;1.17;;;7.90;98.00;;;;;;5033492;28;20465;-70
2021/05/01 00:18:35;;;;;;;5.03;1.80;;;7.90;98.00;;;;;;5031619;28;20869;-70
2021/05/01 00:21:02;;;;;;;1.80;1.77;;;8.00;98.00;;;;;;5032927;28;20523;-70
2021/05/01 00:23:30;;;;;;;5.33;2.67;;;8.00;98.00;;;;;;5031914;28;20462;-70
2021/05/01 00:25:58;;;;;;;1.40;1.20;;;8.10;98.00;;;;;;5032413;28;20461;-70
2021/05/01 00:28:25;;;;;;;1.37;1.30;;;8.10;98.00;;;;;;5030981;28;20461;-70
2021/05/01 00:30:51;;;;;;;2.03;1.63;;;8.10;98.00;;;;;;5033680;28;20458;-70
2021/05/01 00:33:18;;;;;;;9.53;2.20;;;8.00;98.00;;;;;;5029413;28;21123;-70
2021/05/01 00:35:45;;;;;;;3.73;1.63;;;8.10;98.00;;;;;;5033597;28;20459;-70
2021/05/01 00:38:12;;;;;;;3.13;1.60;;;8.20;98.00;;;;;;5031176;28;20456;-70
2021/05/01 00:40:38;;;;;;;1.90;1.57;;;8.30;98.00;;;;;;5033930;28;20462;-70
2021/05/01 00:43:05;;;;;;;1.80;1.47;;;8.30;98.00;;;;;;5031511;28;20462;-70
2021/05/01 00:45:31;;;;;;;2.23;1.90;;;8.30;98.00;;;;;;5033594;28;20489;-69
2021/05/01 00:47:58;;;;;;;2.50;1.80;;;8.30;98.00;;;;;;5031115;28;20485;-70
2021/05/01 00:50:24;;;;;;;3.57;2.03;;;8.20;98.00;;;;;;5033473;28;20497;-70
2021/05/01 00:52:52;;;;;;;2.50;1.60;;;8.10;98.00;;;;;;5030777;28;20816;-70
2021/05/01 00:55:19;;;;;;;2.37;2.00;;;8.20;98.00;;;;;;5033402;28;20494;-69
2021/05/01 00:57:45;;;;;;;2.03;1.70;;;8.10;98.00;;;;;;5031005;28;20457;-70
2021/05/01 01:00:27;;;;;;;2.50;1.83;;;8.10;98.00;;;;;;5033243;28;20504;-69
2021/05/01 01:02:56;;;;;;;2.70;2.50;;;7.90;98.00;;;;;;5030123;28;20948;-69
2021/05/01 01:05:23;;;;;;;2.43;1.90;;;7.90;98.00;;;;;;5033233;28;20500;-69
2021/05/01 01:07:50;;;;;;;1.60;1.57;;;7.90;98.00;;;;;;5030554;28;20493;-69
2021/05/01 01:10:17;;;;;;;2.17;1.93;;;8.10;98.00;;;;;;5033053;28;20498;-69
2021/05/01 01:12:43;;;;;;;1.30;1.20;;;8.10;98.00;;;;;;5031294;28;20960;-69
2021/05/01 01:15:21;;;;;;;2.60;1.77;;;8.00;98.00;;;;;;5032892;28;20871;-70
2021/05/01 01:17:48;;;;;;;6.17;2.50;;;8.10;98.00;;;;;;5030437;28;20462;-70
2021/05/01 01:20:15;;;;;;;2.33;2.13;;;8.00;98.00;;;;;;5032597;28;20587;-70
2021/05/01 01:22:42;;;;;;;8.40;1.87;;;7.90;98.00;;;;;;5030578;28;20501;-69
2021/05/01 01:25:09;;;;;;;2.27;2.03;;;7.80;98.00;;;;;;5033138;28;20550;-69
2021/05/01 01:27:37;;;;;;;2.43;1.83;;;7.80;98.00;;;;;;5030489;28;20493;-70
2021/05/01 01:30:04;;;;;;;1.87;1.33;;;7.60;98.00;;;;;;5032881;28;20892;-69
2021/05/01 01:32:31;;;;;;;1.87;1.53;;;7.50;98.00;;;;;;5029860;28;20983;-69
2021/05/01 01:34:58;;;;;;;2.77;1.80;;;7.60;98.00;;;;;;5031448;28;20453;-69
2021/05/01 01:37:24;;;;;;;8.13;1.40;;;7.50;98.00;;;;;;5029929;28;20462;-69
2021/05/01 01:39:52;;;;;;;3.97;1.73;;;7.60;98.00;;;;;;5032549;28;20489;-69
2021/05/01 01:42:19;;;;;;;2.10;1.50;;;7.80;98.00;;;;;;5029840;28;20466;-69
2021/05/01 01:44:45;;;;;;;3.30;2.30;;;8.00;98.00;;;;;;5032533;28;20465;-69
2021/05/01 01:47:12;;;;;;;3.03;1.70;;;8.00;98.00;;;;;;5029087;28;20512;-69
2021/05/01 01:49:39;;;;;;;1.70;1.50;;;7.90;98.00;;;;;;5031944;28;20819;-69
2021/05/01 01:52:06;;;;;;;2.53;1.40;;;7.70;98.00;;;;;;5029338;28;20549;-69
2021/05/01 01:54:32;;;;;;;1.83;1.83;;;7.60;98.00;;;;;;5031940;28;20784;-69
2021/05/01 01:57:01;;;;;;;1.63;1.60;;;7.50;98.00;;;;;;5029624;28;20567;-69
2021/05/01 01:59:32;;;;;;;2.40;2.23;;;7.60;98.00;;;;;;5032267;28;20582;-69
2021/05/01 02:01:59;;;;;;;1.50;1.20;;;7.60;98.00;;;;;;5030088;28;20461;-69
2021/05/01 02:04:28;;;;;;;3.10;2.50;;;7.60;98.00;;;;;;5032224;28;20466;-69
2021/05/01 02:06:55;;;;;;;8.27;3.07;;;7.60;98.00;;;;;;5030157;28;20537;-69
2021/05/01 02:09:22;;;;;;;4.23;2.10;;;7.50;98.00;;;;;;5032131;28;20459;-70
2021/05/01 02:11:49;;;;;;;2.40;1.90;;;7.60;98.00;;;;;;5027968;28;20991;-69
2021/05/01 02:14:17;;;;;;;2.37;2.17;;;7.50;98.00;;;;;;5032170;28;20837;-69
2021/05/01 02:16:43;;;;;;;1.90;1.30;;;7.40;98.00;;;;;;5028873;28;20459;-69
2021/05/01 02:19:09;;;;;;;4.03;2.83;;;7.40;98.00;;;;;;5031986;28;20471;-69
2021/05/01 02:21:36;;;;;;;2.17;1.63;;;7.30;98.00;;;;;;5028373;28;20464;-70
2021/05/01 02:24:03;;;;;;;1.97;1.77;;;7.20;98.00;;;;;;5031014;28;20469;-69
2021/05/01 02:26:30;;;;;;;2.80;2.23;;;7.20;98.00;;;;;;5028207;28;20486;-70
2021/05/01 02:28:56;;;;;;;8.73;2.20;;;7.20;98.00;;;;;;5031258;28;20818;-70
2021/05/01 02:31:25;;;;;;;2.17;1.73;;;7.30;98.00;;;;;;5031015;28;20813;-69
2021/05/01 02:33:51;;;;;;;1.37;1.33;;;7.20;98.00;;;;;;5031700;28;20459;-69
2021/05/01 02:36:18;;;;;;;6.20;1.73;;;7.20;98.00;;;;;;5031713;28;20460;-69
2021/05/01 02:38:44;;;;;;;3.10;2.20;;;7.30;98.00;;;;;;5029056;28;20930;-69
2021/05/01 02:41:11;;;;;;;3.53;2.70;;;7.30;98.00;;;;;;5030489;28;20545;-69
2021/05/01 02:43:37;;;;;;;2.23;1.83;;;7.20;98.00;;;;;;5028796;28;20955;-69
2021/05/01 02:46:04;;;;;;;2.80;2.07;;;7.20;98.00;;;;;;5031608;28;20580;-70
2021/05/01 02:48:32;;;;;;;4.23;2.03;;;7.20;98.00;;;;;;5028526;28;20455;-69
2021/05/01 02:50:59;;;;;;;2.33;1.63;;;7.20;98.00;;;;;;5031877;28;20463;-69
2021/05/01 02:53:25;;;;;;;2.90;2.03;;;7.30;98.00;;;;;;5028987;28;20820;-69
2021/05/01 02:55:52;;;;;;;3.07;2.57;;;7.40;98.00;;;;;;5032008;28;20473;-69
2021/05/01 02:58:19;;;;;;;1.83;1.47;;;7.50;98.00;;;;;;5029039;28;20457;-69
2021/05/01 03:00:45;;;;;;;1.47;1.43;;;7.40;98.00;;;;;;5034096;28;21122;-69
2021/05/01 03:03:12;;;;;;;4.00;2.43;;;7.50;98.00;;;;;;5033180;28;20887;-69
2021/05/01 03:05:39;;;;;;;3.93;2.20;;;7.50;98.00;;;;;;5035468;28;20461;-70
2021/05/01 03:08:06;;;;;;;2.20;1.80;;;7.60;98.00;;;;;;5032635;28;21056;-69
2021/05/01 03:10:32;;;;;;;7.00;2.30;;;7.70;98.00;;;;;;5035499;28;20472;-69
2021/05/01 03:12:59;;;;;;;4.43;2.13;;;7.80;98.00;;;;;;5032609;28;20461;-70
2021/05/01 03:15:26;;;;;;;3.43;2.20;;;7.90;98.00;;;;;;5035203;28;20516;-69
2021/05/01 03:17:53;;;;;;;3.47;2.00;;;7.70;98.00;;;;;;5032599;28;20519;-69
2021/05/01 03:20:20;;;;;;;5.77;3.17;;;7.70;98.00;;;;;;5035284;28;20452;-69
2021/05/01 03:22:48;;;;;;;4.07;2.43;;;7.50;98.00;;;;;;5032563;28;20957;-69
2021/05/01 03:25:16;;;;;;;1.70;1.53;;;7.40;98.00;;;;;;5035243;28;20464;-69
2021/05/01 03:27:43;;;;;;;5.73;3.03;;;7.30;98.00;;;;;;5032146;28;20561;-70
2021/05/01 03:30:12;;;;;;;1.87;1.73;;;7.20;98.00;;;;;;5035292;28;20463;-69
2021/05/01 03:32:39;;;;;;;2.23;2.00;;;7.20;98.00;;;;;;5032585;28;20463;-69
2021/05/01 03:35:07;;;;;;;1.50;1.10;;;7.20;98.00;;;;;;5035182;28;20448;-69
2021/05/01 03:37:33;;;;;;;1.33;1.23;;;7.30;98.00;;;;;;5032208;28;20551;-70
2021/05/01 03:40:01;;;;;;;2.90;1.20;;;7.40;98.00;;;;;;5035193;28;20461;-69
2021/05/01 03:42:28;;;;;;;1.30;1.10;;;7.40;98.00;;;;;;5030862;28;20456;-69
2021/05/01 03:44:55;;;;;;;1.50;1.47;;;7.20;98.00;;;;;;5033648;28;21083;-69
2021/05/01 03:47:21;;;;;;;6.03;2.10;;;7.00;98.00;;;;;;5032158;28;20598;-69
2021/05/01 03:49:48;;;;;;;2.60;2.17;;;6.90;98.00;;;;;;5034615;28;20460;-69
2021/05/01 03:52:22;;;;;;;1.80;1.53;;;6.80;98.00;;;;;;5032040;28;20525;-70
2021/05/01 03:54:49;;;;;;;1.60;1.40;;;6.70;98.00;;;;;;5034591;28;20490;-69
2021/05/01 03:57:16;;;;;;;1.30;1.20;;;6.80;98.00;;;;;;5031709;28;20482;-69
2021/05/01 03:59:44;;;;;;;2.33;2.17;;;6.90;98.00;;;;;;5034056;28;20454;-70
2021/05/01 04:02:11;;;;;;;2.40;1.97;;;7.00;98.00;;;;;;5032066;28;20885;-69
2021/05/01 04:04:38;;;;;;;1.93;1.77;;;7.20;98.00;;;;;;5033280;28;20472;-69
2021/05/01 04:07:04;;;;;;;1.73;1.50;;;7.40;98.00;;;;;;5031816;28;20571;-69
2021/05/01 04:09:31;;;;;;;3.20;1.53;;;7.40;98.00;;;;;;5032814;28;21049;-69
2021/05/01 04:11:58;;;;;;;1.90;1.67;;;7.40;98.00;;;;;;5030903;28;20469;-70
2021/05/01 04:14:25;;;;;;;1.70;1.43;;;7.50;98.00;;;;;;5034568;28;20464;-69
2021/05/01 04:17:12;;;;;;;1.57;1.50;;;7.50;98.00;;;;;;5029781;28;20492;-69
2021/05/01 04:19:39;;;;;;;1.60;1.43;;;7.50;98.00;;;;;;5034191;28;21048;-69
2021/05/01 04:22:05;;;;;;;5.50;1.93;;;7.50;98.00;;;;;;5031867;28;20499;-69
2021/05/01 04:24:32;;;;;;;2.40;1.87;;;7.60;98.00;;;;;;5034210;28;20460;-69
2021/05/01 04:26:59;;;;;;;1.30;1.17;;;7.60;98.00;;;;;;5031129;28;20488;-69
2021/05/01 04:29:27;;;;;;;3.13;1.90;;;7.70;98.00;;;;;;5033803;28;20476;-69
2021/05/01 04:31:54;;;;;;;2.40;2.17;;;7.70;98.00;;;;;;5031439;28;21002;-69
2021/05/01 04:34:21;;;;;;;1.73;1.47;;;7.70;98.00;;;;;;5033885;28;20516;-69
2021/05/01 04:36:48;;;;;;;1.40;1.40;;;7.80;98.00;;;;;;5029904;28;20460;-70
2021/05/01 04:39:15;;;;;;;1.80;1.40;;;7.80;98.00;;;;;;5033869;28;20456;-70
2021/05/01 04:41:43;;;;;;;2.23;2.03;;;7.70;98.00;;;;;;5030999;28;20462;-70
2021/05/01 04:44:09;;;;;;;1.40;1.40;;;7.70;98.00;;;;;;5033714;28;20473;-69
2021/05/01 04:46:37;;;;;;;2.73;2.20;;;7.70;98.00;;;;;;5032915;28;20460;-69
2021/05/01 04:49:05;;;;;;;2.33;1.80;;;7.60;98.00;;;;;;5032439;28;20810;-69
2021/05/01 04:51:33;;;;;;;2.17;2.00;;;7.40;98.00;;;;;;5032211;28;20473;-69
2021/05/01 04:53:59;;;;;;;2.00;1.63;;;7.40;98.00;;;;;;5030650;28;20486;-69
2021/05/01 04:56:25;;;;;;;2.50;1.87;;;7.50;98.00;;;;;;5033394;28;20978;-69
2021/05/01 04:58:52;;;;;;;9.27;2.83;;;7.60;98.00;;;;;;5030657;28;20460;-69
2021/05/01 05:01:19;;;;;;;2.07;1.77;;;7.60;98.00;;;;;;5032395;28;20457;-69
2021/05/01 05:03:47;;;;;;;1.60;1.27;;;7.50;98.00;;;;;;5030757;28;20452;-69
2021/05/01 05:06:14;;;;;;;1.53;1.47;;;7.30;98.00;;;;;;5033384;28;20468;-69
2021/05/01 05:08:40;;;;;;;3.07;1.90;;;7.30;98.00;;;;;;5030406;28;20831;-69
2021/05/01 05:11:08;;;;;;;2.10;1.87;;;7.30;98.00;;;;;;5033149;28;20487;-69
2021/05/01 05:13:34;;;;;;;2.50;1.87;;;7.40;98.00;;;;;;5030380;28;20962;-69
2021/05/01 05:16:01;;;;;;;1.90;1.40;;;7.50;98.00;;;;;;5033194;28;20461;-69
2021/05/01 05:18:28;;;;;;;2.80;2.10;;;7.40;98.00;;;;;;5030873;28;20501;-70
2021/05/01 05:20:55;;;;;;;1.90;1.60;;;7.60;98.00;;;;;;5032898;28;20510;-70
2021/05/01 05:23:22;;;;;;;3.33;1.77;;;7.70;98.00;;;;;;5029715;28;20456;-69
2021/05/01 05:25:48;;;;;;;1.73;1.37;;;7.80;98.00;;;;;;5032776;28;20852;-69
2021/05/01 05:28:15;;;;;;;1.30;1.13;;;7.80;98.00;;;;;;5029671;28;20586;-69
2021/05/01 05:30:42;;;;;;;1.93;1.60;;;7.70;98.00;;;;;;5032723;28;20457;-69
2021/05/01 05:33:08;;;;;;;3.63;1.93;;;7.50;98.00;;;;;;5029943;28;20462;-69
2021/05/01 05:35:35;;;;;;;2.00;1.90;;;7.60;98.00;;;;;;5032651;28;20490;-70
2021/05/01 05:38:03;;;;;;;1.30;1.20;;;7.70;98.00;;;;;;5029728;28;20594;-70
2021/05/01 05:40:31;;;;;;;2.43;1.77;;;7.80;98.00;;;;;;5032524;28;20826;-70
2021/05/01 05:42:58;;;;;;;2.00;1.93;;;7.90;98.00;;;;;;5029529;28;20851;-71
2021/05/01 05:45:26;;;;;;;2.27;1.50;;;8.10;98.00;;;;;;5032789;28;20469;-71
2021/05/01 05:47:53;;;;;;;1.57;1.47;;;8.20;98.00;;;;;;5029774;28;20986;-70
2021/05/01 05:50:20;;;;;;;1.63;1.63;;;8.20;98.00;;;;;;5032606;28;20493;-70
2021/05/01 05:52:47;;;;;;;1.70;1.60;;;8.20;98.00;;;;;;5030046;28;20462;-70
2021/05/01 05:55:15;;;;;;;2.50;1.50;;;8.30;98.00;;;;;;5032604;28;20457;-70
2021/05/01 05:57:48;;;;;;;1.30;1.00;;;8.10;98.00;;;;;;5029769;28;20459;-70
2021/05/01 06:00:16;;;;;;;1.50;1.30;;;7.80;98.00;;;;;;5032361;28;20455;-70
2021/05/01 06:02:43;;;;;;;1.30;1.10;;;7.70;98.00;;;;;;5029155;28;20550;-69
2021/05/01 06:05:13;;;;;;;3.30;1.60;;;7.70;98.00;;;;;;5032249;28;20448;-69
2021/05/01 06:07:43;;;;;;;1.20;1.10;;;7.60;98.00;;;;;;5029531;28;20524;-69
2021/05/01 06:10:13;;;;;;;1.40;1.37;;;7.70;98.00;;;;;;5031999;28;20452;-69
2021/05/01 06:12:43;;;;;;;3.23;2.27;;;7.90;98.00;;;;;;5029345;28;20482;-69
2021/05/01 06:15:16;;;;;;;2.17;1.27;;;7.90;98.00;;;;;;5032011;28;20452;-69
2021/05/01 06:17:44;;;;;;;5.33;2.27;;;7.70;98.00;;;;;;5027976;28;20464;-70
2021/05/01 06:20:14;;;;;;;2.77;1.33;;;7.80;98.00;;;;;;5030445;28;20808;-69
2021/05/01 06:22:41;;;;;;;1.30;1.30;;;7.70;98.00;;;;;;5028681;28;20488;-70
2021/05/01 06:25:11;;;;;;;1.70;1.60;;;7.90;98.00;;;;;;5031761;28;20884;-70
2021/05/01 06:27:38;;;;;;;1.93;1.43;;;8.30;98.00;;;;;;5029681;28;20484;-70
2021/05/01 06:30:08;;;;;;;2.17;1.47;;;8.20;98.00;;;;;;5031461;28;20475;-70
2021/05/01 06:32:35;;;;;;;2.03;1.60;;;8.10;98.00;;;;;;5029457;28;20488;-69
2021/05/01 06:35:02;;;;;;;12.03;1.77;;;7.90;98.00;;;;;;5031649;28;20464;-69
2021/05/01 06:37:29;;;;;;;7.40;2.50;;;7.90;98.00;;;;;;5029317;28;20464;-70
2021/05/01 06:40:01;;;;;;;2.23;1.67;;;8.10;98.00;;;;;;5031588;28;20455;-69
2021/05/01 06:42:29;;;;;;;2.13;1.27;;;8.30;98.00;;;;;;5028821;28;20552;-70
2021/05/01 06:45:01;;;;;;;2.43;1.90;;;8.30;98.00;;;;;;5031596;28;20469;-70
2021/05/01 06:47:31;;;;;;;3.10;1.70;;;8.40;98.00;;;;;;5029013;28;20528;-69
2021/05/01 06:50:04;;;;;;;1.90;1.30;;;8.60;98.00;;;;;;5030249;28;20454;-69
2021/05/01 06:52:33;;;;;;;1.67;1.37;;;8.80;98.00;;;;;;5028918;28;20463;-70
2021/05/01 06:57:47;;;;;;;1.70;1.60;;;9.10;98.00;;;;;;5028811;28;20465;-69
2021/05/01 07:00:16;;;;;;;1.97;1.40;;;9.10;98.00;;;;;;5031340;28;20462;-70
2021/05/01 07:02:46;;;;;;;3.70;1.77;;;9.00;98.00;;;;;;5027352;28;20927;-71
2021/05/01 07:05:15;;;;;;;1.80;1.70;;;9.00;98.00;;;;;;5030076;28;20490;-69
2021/05/01 07:07:43;;;;;;;1.47;1.43;;;9.20;98.00;;;;;;5028333;28;20521;-69
2021/05/01 07:10:13;;;;;;;1.30;1.27;;;9.40;98.00;;;;;;5031298;28;20523;-69
2021/05/01 07:12:41;;;;;;;2.20;1.50;;;9.30;98.00;;;;;;5028580;28;20481;-70
2021/05/01 07:15:10;;;;;;;1.40;1.20;;;9.20;98.00;;;;;;5029973;28;20461;-71
2021/05/01 07:17:36;;;;;;;2.27;1.60;;;9.30;98.00;;;;;;5027735;28;20798;-69
2021/05/01 07:20:06;;;;;;;1.47;1.27;;;9.50;98.00;;;;;;5030904;28;20814;-69
2021/05/01 07:22:33;;;;;;;2.03;1.23;;;9.70;98.00;;;;;;5028233;28;20463;-69
2021/05/01 07:25:01;;;;;;;2.80;1.90;;;9.80;98.00;;;;;;5030708;28;20509;-70
2021/05/01 07:27:33;;;;;;;6.50;2.53;;;9.80;98.00;;;;;;5027846;28;21033;-70
2021/05/01 07:30:01;;;;;;;1.30;1.17;;;9.90;98.00;;;;;;5030527;28;20466;-70
2021/05/01 07:32:31;;;;;;;2.43;1.83;;;9.90;98.00;;;;;;5028313;28;20824;-70
2021/05/01 07:35:01;;;;;;;3.13;2.17;;;9.80;98.00;;;;;;5030588;28;20464;-71
2021/05/01 07:37:29;;;;;;;1.80;1.30;;;9.80;98.00;;;;;;5027719;28;20471;-69
2021/05/01 07:39:57;;;;;;;2.10;1.30;;;9.80;98.00;;;;;;5030377;28;20462;-68
2021/05/01 07:42:24;;;;;;;3.33;2.23;;;9.80;98.00;;;;;;5028209;28;20458;-69
2021/05/01 07:44:52;;;;;;;1.30;1.20;;;9.90;98.00;;;;;;5029140;28;20461;-70
2021/05/01 07:47:30;;;;;;;2.77;1.83;;;9.90;98.00;;;;;;5030464;28;20492;-69
2021/05/01 07:49:59;;;;;;;1.50;1.30;;;9.90;98.00;;;;;;5032693;28;20526;-68
2021/05/01 07:52:31;;;;;;;5.27;2.00;;;9.90;98.00;;;;;;5031197;28;20509;-68
2021/05/01 07:54:59;;;;;;;1.97;1.60;;;10.10;98.00;;;;;;5033806;28;20458;-69
2021/05/01 07:57:26;;;;;;;1.80;1.67;;;10.30;98.00;;;;;;5031788;28;20824;-68
2021/05/01 07:59:53;;;;;;;1.30;1.20;;;10.30;98.00;;;;;;5034427;28;21102;-69
2021/05/01 08:02:20;;;;;;;4.13;2.07;;;10.30;98.00;;;;;;5031462;28;20822;-68
2021/05/01 08:04:46;;;;;;;1.30;1.30;;;10.40;98.00;;;;;;5033942;28;20462;-69
2021/05/01 08:07:13;;;;;;;1.50;1.20;;;10.50;98.00;;;;;;5031195;28;20518;-69
2021/05/01 08:09:39;;;;;;;1.40;1.10;;;10.60;98.00;;;;;;5032376;28;20844;-69
2021/05/01 08:12:07;;;;;;;3.60;2.07;;;10.70;98.00;;;;;;5029110;28;20473;-69
2021/05/01 08:14:33;;;;;;;4.03;1.53;;;10.70;98.00;;;;;;5033061;28;20885;-69
2021/05/01 08:17:01;;;;;;;2.50;2.03;;;10.70;98.00;;;;;;5030593;28;20478;-69
2021/05/01 08:19:28;;;;;;;3.00;2.57;;;10.80;98.00;;;;;;5033579;28;20501;-69
2021/05/01 08:21:55;;;;;;;1.47;1.47;;;10.90;98.00;;;;;;5032448;28;20543;-69
2021/05/01 08:24:22;;;;;;;2.47;1.73;;;11.10;98.00;;;;;;5030187;28;20960;-69
2021/05/01 08:26:48;;;;;;;3.27;2.27;;;11.10;98.00;;;;;;5033587;28;20462;-70
2021/05/01 08:29:16;;;;;;;2.23;1.80;;;11.30;98.00;;;;;;5031044;28;20505;-68
2021/05/01 08:31:42;;;;;;;1.60;1.40;;;11.40;98.00;;;;;;5033227;28;20459;-70
2021/05/01 08:34:09;;;;;;;3.70;1.60;;;11.60;98.00;;;;;;5029216;28;20471;-68
2021/05/01 08:36:36;;;;;;;3.30;1.73;;;11.80;98.00;;;;;;5032181;28;20876;-69
2021/05/01 08:39:03;;;;;;;1.50;1.27;;;11.90;98.00;;;;;;5031117;28;20450;-68
2021/05/01 08:41:30;;;;;;;2.67;1.63;;;11.80;98.00;;;;;;5033595;28;20456;-69
2021/05/01 08:44:04;;;;;;;1.73;1.73;;;11.80;98.00;;;;;;5030172;28;20540;-70
2021/05/01 08:46:32;;;;;;;2.27;1.50;;;11.90;98.00;;;;;;5033343;28;20508;-70
2021/05/01 08:48:59;;;;;;;1.70;1.37;;;12.00;98.00;;;;;;5028535;28;21096;-72
2021/05/01 08:51:25;;;;;;;3.97;1.30;;;11.90;98.00;;;;;;5033030;28;20518;-71
2021/05/01 08:53:53;;;;;;;2.90;1.57;;;11.60;98.00;;;;;;5028900;28;20546;-69
2021/05/01 08:56:20;;;;;;;2.10;1.53;;;11.50;98.00;;;;;;5031387;28;20471;-69
2021/05/01 08:58:48;;;;;;;1.97;1.60;;;11.60;98.00;;;;;;5029756;28;20989;-69
2021/05/01 09:01:15;;;;;;;1.90;1.53;;;11.60;98.00;;;;;;5033045;28;20475;-70
2021/05/01 09:03:45;;;;;;;2.00;1.83;;;11.60;98.00;;;;;;5030602;28;20483;-74
2021/05/01 09:06:13;;;;;;;1.77;1.50;;;11.50;98.00;;;;;;5032790;28;20473;-72
2021/05/01 09:08:41;;;;;;;2.70;2.03;;;11.40;98.00;;;;;;5029443;28;20499;-71
2021/05/01 09:11:08;;;;;;;1.60;1.33;;;11.50;98.00;;;;;;5032965;28;20517;-69
2021/05/01 09:13:47;;;;;;;4.60;2.37;;;11.40;98.00;;;;;;5030248;28;20512;-71
2021/05/01 09:16:16;;;;;;;3.83;2.13;;;11.30;98.00;;;;;;5032498;28;20465;-70
2021/05/01 09:18:47;;;;;;;3.63;1.93;;;11.40;98.00;;;;;;5030015;28;20455;-70
2021/05/01 09:21:17;;;;;;;1.60;1.30;;;11.30;98.00;;;;;;5032570;28;20454;-70
2021/05/01 09:23:44;;;;;;;1.70;1.57;;;11.30;98.00;;;;;;5030623;28;20644;-72
2021/05/01 09:26:18;;;;;;;2.57;2.37;;;11.30;98.00;;;;;;5032408;28;21078;-69
2021/05/01 09:28:48;;;;;;;3.53;1.93;;;11.40;98.00;;;;;;5029486;28;20603;-70
2021/05/01 09:31:17;;;;;;;1.83;1.50;;;11.50;98.00;;;;;;5032441;28;20451;-70
2021/05/01 09:33:48;;;;;;;3.30;2.03;;;11.50;98.00;;;;;;5029409;28;20486;-71
2021/05/01 09:36:16;;;;;;;3.00;2.10;;;11.50;98.00;;;;;;5030430;28;20500;-71
2021/05/01 09:38:44;;;;;;;2.60;2.07;;;11.40;98.00;;;;;;5029105;28;20514;-71
2021/05/01 09:41:17;;;;;;;2.43;1.97;;;11.10;98.00;;;;;;5031477;28;20454;-72
2021/05/01 09:44:02;;;;;;;1.60;1.50;;;11.00;98.00;;;;;;5028934;28;20838;-71
2021/05/01 09:46:29;;;;;;;1.67;1.30;;;11.10;98.00;;;;;;5031552;28;20457;-72
2021/05/01 09:49:07;;;;;;;6.30;1.63;;;11.20;98.00;;;;;;5029056;28;20518;-71
2021/05/01 09:51:45;;;;;;;3.50;2.43;;;11.30;98.00;;;;;;5031401;28;20455;-72
2021/05/01 09:54:13;;;;;;;2.80;2.00;;;11.40;98.00;;;;;;5028665;28;20946;-72
2021/05/01 09:56:41;;;;;;;4.60;1.60;;;11.60;98.00;;;;;;5030373;28;20861;-72
2021/05/01 09:59:10;;;;;;;1.60;1.33;;;11.70;98.00;;;;;;5028591;28;20462;-71
2021/05/01 10:01:37;;;;;;;1.67;1.57;;;11.70;98.00;;;;;;5044753;28;20460;-72
2021/05/01 10:04:15;;;;;;;3.57;1.90;;;11.70;98.00;;;;;;5028394;28;20486;-71
2021/05/01 10:06:46;;;;;;;2.47;1.97;;;11.90;98.00;;;;;;5031089;28;20458;-71
2021/05/01 10:09:20;;;;;;;2.57;1.70;;;11.90;98.00;;;;;;5027643;28;20584;-72
2021/05/01 10:11:47;;;;;;;2.30;1.90;;;11.90;98.00;;;;;;5031030;28;20856;-71
2021/05/01 10:14:17;;;;;;;1.60;1.47;;;11.90;98.00;;;;;;5027929;28;20503;-72
2021/05/01 10:16:54;;;;;;;2.00;1.63;;;11.90;98.00;;;;;;5030959;28;21007;-72
2021/05/01 10:19:22;;;;;;;1.93;1.67;;;11.90;98.00;;;;;;5028350;28;20480;-71
2021/05/01 10:21:49;;;;;;;1.87;1.83;;;11.80;98.00;;;;;;5031248;28;20460;-71
2021/05/01 10:24:15;;;;;;;6.47;2.00;;;11.80;98.00;;;;;;5026874;28;20979;-72
2021/05/01 10:26:44;;;;;;;3.47;2.07;;;11.60;98.00;;;;;;5030661;28;20972;-71
2021/05/01 10:29:28;;;;;;;2.03;1.40;;;11.60;98.00;;;;;;5027796;28;20504;-72
2021/05/01 10:31:55;;;;;;;2.70;1.67;;;11.50;98.00;;;;;;5030667;28;20460;-71
2021/05/01 10:34:25;;;;;;;2.13;1.83;;;11.60;98.00;;;;;;5027966;28;20464;-71
2021/05/01 10:36:54;;;;;;;2.70;2.07;;;11.60;98.00;;;;;;5030454;28;20466;-71
2021/05/01 10:39:20;;;;;;;2.07;1.97;;;11.70;98.00;;;;;;5028229;28;20946;-71
2021/05/01 10:42:01;;;;;;;2.13;1.53;;;11.70;98.00;;;;;;5030550;28;20496;-71
2021/05/01 10:44:28;;;;;;;1.60;1.50;;;11.70;98.00;;;;;;5028420;28;20465;-71
2021/05/01 10:47:09;;;;;;;3.70;1.83;;;11.70;98.00;;;;;;5031287;28;20497;-71
2021/05/01 10:49:38;;;;;;;3.00;1.67;;;11.60;98.00;;;;;;5028730;28;20458;-71
2021/05/01 10:52:15;;;;;;;1.70;1.50;;;11.50;98.00;;;;;;5030382;28;20454;-72
2021/05/01 10:55:00;;;;;;;6.10;2.60;;;11.60;98.00;;;;;;5030124;28;20464;-71
2021/05/01 10:57:29;;;;;;;3.43;2.47;;;11.40;98.00;;;;;;5026031;28;20465;-70
2021/05/01 11:00:00;;;;;;;1.80;1.73;;;11.40;98.00;;;;;;5030170;28;20465;-72
2021/05/01 11:02:38;;;;;;;1.60;1.50;;;11.30;98.00;;;;;;5027745;28;20535;-73
2021/05/01 11:05:08;;;;;;;1.93;1.40;;;11.40;98.00;;;;;;5030051;28;20894;-72
2021/05/01 11:07:51;;;;;;;3.70;2.23;;;11.40;98.00;;;;;;5026203;28;20946;-72
2021/05/01 11:10:17;;;;;;;3.10;2.27;;;11.40;98.00;;;;;;5030421;28;20519;-73
2021/05/01 11:12:51;;;;;;;1.40;1.33;;;11.30;98.00;;;;;;5027889;28;20461;-72
2021/05/01 11:15:21;;;;;;;1.80;1.63;;;11.50;98.00;;;;;;5030043;28;20460;-71
2021/05/01 11:17:52;;;;;;;2.50;1.63;;;11.70;98.00;;;;;;5027809;28;20542;-71
2021/05/01 11:20:22;;;;;;;5.50;2.30;;;11.70;98.00;;;;;;5030489;28;20548;-71
2021/05/01 11:22:51;;;;;;;3.20;1.70;;;11.60;98.00;;;;;;5031583;28;20472;-71
2021/05/01 11:25:19;;;;;;;2.37;1.63;;;11.50;98.00;;;;;;5034143;28;20467;-69
2021/05/01 11:27:47;;;;;;;3.10;2.17;;;11.50;98.00;;;;;;5030495;28;20572;-71
2021/05/01 11:30:16;;;;;;;1.90;1.70;;;11.80;98.00;;;;;;5034324;28;20483;-71
2021/05/01 11:32:43;;;;;;;2.00;1.70;;;12.00;98.00;;;;;;5031412;28;20959;-71
2021/05/01 11:35:12;;;;;;;2.60;2.00;;;12.20;98.00;;;;;;5033865;28;20507;-72
2021/05/01 11:37:45;;;;;;;2.60;1.93;;;12.10;98.00;;;;;;5031820;28;20878;-71
2021/05/01 11:40:13;;;;;;;5.10;3.00;;;12.00;98.00;;;;;;5033697;28;20489;-70
2021/05/01 11:42:41;;;;;;;7.63;2.07;;;11.80;98.00;;;;;;5031718;28;20790;-70
2021/05/01 11:45:12;;;;;;;2.23;1.70;;;11.70;98.00;;;;;;5033641;28;20455;-71
2021/05/01 11:47:41;;;;;;;2.80;1.73;;;11.50;98.00;;;;;;5031400;28;20986;-71
2021/05/01 11:50:10;;;;;;;3.33;2.30;;;11.50;98.00;;;;;;5032440;28;20469;-70
2021/05/01 11:52:56;;;;;;;2.00;1.43;;;11.70;98.00;;;;;;5031447;28;20469;-71
2021/05/01 11:55:29;;;;;;;3.87;2.07;;;11.80;98.00;;;;;;5033307;28;20471;-71
2021/05/01 11:57:57;;;;;;;2.20;2.00;;;11.80;98.00;;;;;;5030975;28;20490;-72
2021/05/01 12:00:34;;;;;;;2.30;1.87;;;11.70;98.00;;;;;;5033487;28;20453;-71
2021/05/01 12:03:02;;;;;;;1.70;1.40;;;11.50;98.00;;;;;;5030895;28;20834;-71
2021/05/01 12:05:35;;;;;;;1.60;1.43;;;11.50;98.00;;;;;;5033250;28;20946;-72
2021/05/01 12:08:07;;;;;;;3.10;1.80;;;11.70;98.00;;;;;;5030785;28;20521;-72
2021/05/01 12:10:38;;;;;;;2.30;1.43;;;11.90;98.00;;;;;;5033289;28;20463;-72
2021/05/01 12:13:07;;;;;;;3.63;3.00;;;11.90;98.00;;;;;;5013622;28;20460;-71
2021/05/01 12:15:38;;;;;;;2.33;1.57;;;12.10;98.00;;;;;;5033103;28;20453;-72
2021/05/01 12:18:06;;;;;;;6.87;3.07;;;12.20;98.00;;;;;;5030575;28;20952;-71
2021/05/01 12:20:36;;;;;;;1.80;1.73;;;12.30;98.00;;;;;;5032980;28;20514;-71
2021/05/01 12:23:06;;;;;;;4.33;2.60;;;12.40;98.00;;;;;;5030434;28;20453;-71
2021/05/01 12:25:40;;;;;;;1.50;1.33;;;12.50;98.00;;;;;;5032638;28;20544;-71
2021/05/01 12:28:08;;;;;;;2.50;1.93;;;12.50;98.00;;;;;;5029822;28;20526;-72
2021/05/01 12:31:00;;;;;;;1.90;1.50;;;12.50;98.00;;;;;;5032826;28;20629;-71
2021/05/01 12:33:56;;;;;;;3.00;1.93;;;12.50;98.00;;;;;;5029728;28;20935;-70
2021/05/01 12:36:28;;;;;;;2.70;1.63;;;12.40;98.00;;;;;;5033067;28;20486;-71
2021/05/01 12:39:01;;;;;;;2.03;1.90;;;12.50;98.00;;;;;;5030466;28;20463;-70
2021/05/01 12:41:31;;;;;;;5.33;2.70;;;12.40;98.00;;;;;;5030565;28;20847;-72
2021/05/01 12:44:00;;;;;;;4.43;2.03;;;12.20;98.00;;;;;;5029139;28;20959;-71
2021/05/01 12:46:53;;;;;;;2.80;1.50;;;12.10;98.00;;;;;;5032603;28;20454;-71
2021/05/01 12:49:22;;;;;;;2.97;2.20;;;12.30;98.00;;;;;;5030144;28;20490;-71
2021/05/01 12:52:10;;;;;;;1.93;1.53;;;12.50;98.00;;;;;;5031810;28;20469;-70
2021/05/01 12:54:39;;;;;;;2.90;1.90;;;12.50;98.00;;;;;;5030398;28;20488;-71
2021/05/01 12:57:08;;;;;;;4.23;1.80;;;12.40;98.00;;;;;;5031634;28;20476;-70
2021/05/01 12:59:37;;;;;;;1.20;1.10;;;12.50;98.00;;;;;;5030544;28;20464;-70
2021/05/01 13:02:23;;;;;;;2.87;2.67;;;12.50;98.00;;;;;;5032790;28;20535;-70
2021/05/01 13:05:10;;;;;;;1.70;1.37;;;12.50;98.00;;;;;;5030539;28;20465;-71